sensor_id;sensor_type;location;lat;lon;timestamp;P1;durP1;ratioP1;P2;durP2;ratioP2
19854;SDS011;10088;47.946;2.532;2022-08-01T00:00:17;2.00;;;1.07;;
19854;SDS011;10088;47.946;2.532;2022-08-01T00:02:42;1.20;;;1.00;;
19854;SDS011;10088;47.946;2.532;2022-08-01T00:05:08;2.13;;;1.07;;
19854;SDS011;10088;47.946;2.532;2022-08-01T00:07:33;1.77;;;0.90;;
19854;SDS011;10088;47.946;2.532;2022-08-01T00:09:59;1.10;;;1.00;;
19854;SDS011;10088;47.946;2.532;2022-08-01T00:12:24;3.20;;;1.10;;
19854;SDS011;10088;47.946;2.532;2022-08-01T00:14:49;0.93;;;0.80;;
19854;SDS011;10088;47.946;2.532;2022-08-01T00:17:15;1.30;;;1.20;;
19854;SDS011;10088;47.946;2.532;2022-08-01T00:19:40;1.10;;;1.00;;
19854;SDS011;10088;47.946;2.532;2022-08-01T00:22:06;1.10;;;1.00;;
19854;SDS011;10088;47.946;2.532;2022-08-01T00:24:31;1.70;;;1.10;;
19854;SDS011;10088;47.946;2.532;2022-08-01T00:26:56;2.87;;;1.40;;
19854;SDS011;10088;47.946;2.532;2022-08-01T00:29:21;1.47;;;1.20;;
19854;SDS011;10088;47.946;2.532;2022-08-01T00:31:47;1.40;;;1.20;;
19854;SDS011;10088;47.946;2.532;2022-08-01T00:34:12;2.10;;;1.20;;
19854;SDS011;10088;47.946;2.532;2022-08-01T00:36:37;2.10;;;1.20;;
19854;SDS011;10088;47.946;2.532;2022-08-01T00:39:03;2.17;;;1.33;;
19854;SDS011;10088;47.946;2.532;2022-08-01T00:41:28;2.60;;;1.30;;
19854;SDS011;10088;47.946;2.532;2022-08-01T00:43:53;1.80;;;1.40;;
19854;SDS011;10088;47.946;2.532;2022-08-01T00:46:19;2.90;;;1.20;;
19854;SDS011;10088;47.946;2.532;2022-08-01T00:48:45;1.83;;;1.43;;
19854;SDS011;10088;47.946;2.532;2022-08-01T00:51:10;1.83;;;1.30;;
19854;SDS011;10088;47.946;2.532;2022-08-01T00:53:35;2.27;;;1.10;;
19854;SDS011;10088;47.946;2.532;2022-08-01T00:56:01;1.20;;;1.10;;
19854;SDS011;10088;47.946;2.532;2022-08-01T00:58:26;1.50;;;1.23;;
19854;SDS011;10088;47.946;2.532;2022-08-01T01:00:54;2.90;;;1.37;;
19854;SDS011;10088;47.946;2.532;2022-08-01T01:03:19;2.77;;;1.40;;
19854;SDS011;10088;47.946;2.532;2022-08-01T01:05:48;1.20;;;1.10;;
19854;SDS011;10088;47.946;2.532;2022-08-01T01:08:20;1.77;;;1.20;;
19854;SDS011;10088;47.946;2.532;2022-08-01T01:11:10;1.63;;;1.23;;
19854;SDS011;10088;47.946;2.532;2022-08-01T01:13:41;2.37;;;1.30;;
19854;SDS011;10088;47.946;2.532;2022-08-01T01:16:12;2.57;;;1.40;;
19854;SDS011;10088;47.946;2.532;2022-08-01T01:18:45;3.80;;;1.33;;
19854;SDS011;10088;47.946;2.532;2022-08-01T01:31:16;1.40;;;1.23;;
19854;SDS011;10088;47.946;2.532;2022-08-01T01:33:44;2.00;;;1.50;;
19854;SDS011;10088;47.946;2.532;2022-08-01T01:36:10;1.70;;;1.60;;
19854;SDS011;10088;47.946;2.532;2022-08-01T01:38:37;1.70;;;1.50;;
19854;SDS011;10088;47.946;2.532;2022-08-01T01:41:07;1.60;;;1.27;;
19854;SDS011;10088;47.946;2.532;2022-08-01T01:43:33;1.57;;;1.47;;
19854;SDS011;10088;47.946;2.532;2022-08-01T01:46:00;1.20;;;1.10;;
19854;SDS011;10088;47.946;2.532;2022-08-01T01:48:26;2.37;;;1.40;;
19854;SDS011;10088;47.946;2.532;2022-08-01T01:50:52;1.33;;;1.23;;
19854;SDS011;10088;47.946;2.532;2022-08-01T01:53:18;1.67;;;1.40;;
19854;SDS011;10088;47.946;2.532;2022-08-01T01:55:45;1.97;;;1.40;;
19854;SDS011;10088;47.946;2.532;2022-08-01T01:58:12;1.90;;;1.53;;
19854;SDS011;10088;47.946;2.532;2022-08-01T02:00:38;1.50;;;1.40;;
19854;SDS011;10088;47.946;2.532;2022-08-01T02:03:05;2.37;;;1.30;;
19854;SDS011;10088;47.946;2.532;2022-08-01T02:05:30;1.93;;;1.30;;
19854;SDS011;10088;47.946;2.532;2022-08-01T02:07:59;1.93;;;1.50;;
19854;SDS011;10088;47.946;2.532;2022-08-01T02:10:24;1.20;;;1.10;;
19854;SDS011;10088;47.946;2.532;2022-08-01T02:12:51;2.30;;;1.53;;
19854;SDS011;10088;47.946;2.532;2022-08-01T02:15:16;1.67;;;1.20;;
19854;SDS011;10088;47.946;2.532;2022-08-01T02:17:47;2.07;;;1.37;;
19854;SDS011;10088;47.946;2.532;2022-08-01T02:20:13;1.93;;;1.73;;
19854;SDS011;10088;47.946;2.532;2022-08-01T02:22:44;2.20;;;1.57;;
19854;SDS011;10088;47.946;2.532;2022-08-01T02:25:12;2.50;;;2.00;;
19854;SDS011;10088;47.946;2.532;2022-08-01T02:27:42;2.30;;;1.77;;
19854;SDS011;10088;47.946;2.532;2022-08-01T02:30:09;3.00;;;1.70;;
19854;SDS011;10088;47.946;2.532;2022-08-01T02:32:37;2.10;;;1.63;;
19854;SDS011;10088;47.946;2.532;2022-08-01T02:35:03;3.30;;;1.73;;
19854;SDS011;10088;47.946;2.532;2022-08-01T02:37:33;2.73;;;2.00;;
19854;SDS011;10088;47.946;2.532;2022-08-01T02:40:00;3.10;;;1.70;;
19854;SDS011;10088;47.946;2.532;2022-08-01T02:42:26;2.60;;;2.33;;
19854;SDS011;10088;47.946;2.532;2022-08-01T02:44:52;2.17;;;2.03;;
19854;SDS011;10088;47.946;2.532;2022-08-01T02:47:19;1.80;;;1.70;;
19854;SDS011;10088;47.946;2.532;2022-08-01T02:49:45;1.90;;;1.33;;
19854;SDS011;10088;47.946;2.532;2022-08-01T02:52:12;1.97;;;1.80;;
19854;SDS011;10088;47.946;2.532;2022-08-01T02:54:38;3.73;;;1.70;;
19854;SDS011;10088;47.946;2.532;2022-08-01T02:57:05;2.93;;;1.70;;
19854;SDS011;10088;47.946;2.532;2022-08-01T02:59:31;3.23;;;1.80;;
19854;SDS011;10088;47.946;2.532;2022-08-01T03:01:57;2.43;;;1.97;;
19854;SDS011;10088;47.946;2.532;2022-08-01T03:04:24;6.13;;;2.20;;
19854;SDS011;10088;47.946;2.532;2022-08-01T03:06:51;2.23;;;2.00;;
19854;SDS011;10088;47.946;2.532;2022-08-01T03:09:17;2.07;;;1.90;;
19854;SDS011;10088;47.946;2.532;2022-08-01T03:11:44;2.57;;;1.73;;
19854;SDS011;10088;47.946;2.532;2022-08-01T03:14:10;3.30;;;2.20;;
19854;SDS011;10088;47.946;2.532;2022-08-01T03:16:37;2.50;;;1.90;;
19854;SDS011;10088;47.946;2.532;2022-08-01T03:19:03;1.90;;;1.80;;
19854;SDS011;10088;47.946;2.532;2022-08-01T03:21:28;2.33;;;2.13;;
19854;SDS011;10088;47.946;2.532;2022-08-01T03:23:54;2.43;;;2.23;;
19854;SDS011;10088;47.946;2.532;2022-08-01T03:26:23;2.90;;;1.80;;
19854;SDS011;10088;47.946;2.532;2022-08-01T03:28:49;3.70;;;1.73;;
19854;SDS011;10088;47.946;2.532;2022-08-01T03:31:16;2.90;;;2.10;;
19854;SDS011;10088;47.946;2.532;2022-08-01T03:33:42;2.67;;;1.73;;
19854;SDS011;10088;47.946;2.532;2022-08-01T03:36:08;3.03;;;1.90;;
19854;SDS011;10088;47.946;2.532;2022-08-01T03:38:34;2.20;;;2.00;;
19854;SDS011;10088;47.946;2.532;2022-08-01T03:41:06;2.00;;;1.63;;
19854;SDS011;10088;47.946;2.532;2022-08-01T03:43:46;2.30;;;2.10;;
19854;SDS011;10088;47.946;2.532;2022-08-01T03:46:24;2.50;;;1.70;;
19854;SDS011;10088;47.946;2.532;2022-08-01T03:48:51;2.07;;;1.83;;
19854;SDS011;10088;47.946;2.532;2022-08-01T03:51:20;3.37;;;2.00;;
19854;SDS011;10088;47.946;2.532;2022-08-01T03:53:46;1.90;;;1.80;;
19854;SDS011;10088;47.946;2.532;2022-08-01T03:56:12;2.13;;;1.93;;
19854;SDS011;10088;47.946;2.532;2022-08-01T03:58:39;2.20;;;2.00;;
19854;SDS011;10088;47.946;2.532;2022-08-01T04:01:05;2.63;;;2.17;;
19854;SDS011;10088;47.946;2.532;2022-08-01T04:03:30;2.63;;;2.40;;
19854;SDS011;10088;47.946;2.532;2022-08-01T04:05:56;2.63;;;2.20;;
19854;SDS011;10088;47.946;2.532;2022-08-01T04:08:22;1.87;;;1.77;;
19854;SDS011;10088;47.946;2.532;2022-08-01T04:10:47;3.23;;;1.83;;
19854;SDS011;10088;47.946;2.532;2022-08-01T04:13:12;3.57;;;2.07;;
19854;SDS011;10088;47.946;2.532;2022-08-01T04:15:38;2.50;;;1.87;;
19854;SDS011;10088;47.946;2.532;2022-08-01T04:18:03;3.50;;;2.13;;
19854;SDS011;10088;47.946;2.532;2022-08-01T04:20:28;3.73;;;2.33;;
19854;SDS011;10088;47.946;2.532;2022-08-01T04:22:53;5.53;;;2.13;;
19854;SDS011;10088;47.946;2.532;2022-08-01T04:25:20;7.33;;;2.33;;
19854;SDS011;10088;47.946;2.532;2022-08-01T04:27:47;2.40;;;1.80;;
19854;SDS011;10088;47.946;2.532;2022-08-01T04:30:14;3.50;;;1.97;;
19854;SDS011;10088;47.946;2.532;2022-08-01T04:32:40;4.73;;;2.27;;
19854;SDS011;10088;47.946;2.532;2022-08-01T04:35:08;2.37;;;1.60;;
19854;SDS011;10088;47.946;2.532;2022-08-01T04:37:35;3.20;;;2.00;;
19854;SDS011;10088;47.946;2.532;2022-08-01T04:40:02;3.13;;;1.80;;
19854;SDS011;10088;47.946;2.532;2022-08-01T04:42:28;4.70;;;1.93;;
19854;SDS011;10088;47.946;2.532;2022-08-01T04:44:53;4.07;;;2.30;;
19854;SDS011;10088;47.946;2.532;2022-08-01T04:47:19;2.70;;;2.03;;
19854;SDS011;10088;47.946;2.532;2022-08-01T04:49:44;2.93;;;2.17;;
19854;SDS011;10088;47.946;2.532;2022-08-01T04:52:11;3.10;;;1.93;;
19854;SDS011;10088;47.946;2.532;2022-08-01T04:54:36;4.43;;;1.90;;
19854;SDS011;10088;47.946;2.532;2022-08-01T04:57:02;4.33;;;2.23;;
19854;SDS011;10088;47.946;2.532;2022-08-01T04:59:28;2.57;;;1.87;;
19854;SDS011;10088;47.946;2.532;2022-08-01T05:02:10;3.83;;;2.17;;
19854;SDS011;10088;47.946;2.532;2022-08-01T05:04:36;3.23;;;1.77;;
19854;SDS011;10088;47.946;2.532;2022-08-01T05:07:02;1.77;;;1.67;;
19854;SDS011;10088;47.946;2.532;2022-08-01T05:09:27;4.53;;;1.73;;
19854;SDS011;10088;47.946;2.532;2022-08-01T05:11:52;1.73;;;1.63;;
19854;SDS011;10088;47.946;2.532;2022-08-01T05:14:18;3.67;;;1.80;;
19854;SDS011;10088;47.946;2.532;2022-08-01T05:16:44;2.50;;;2.23;;
19854;SDS011;10088;47.946;2.532;2022-08-01T05:19:09;2.43;;;2.00;;
19854;SDS011;10088;47.946;2.532;2022-08-01T05:21:34;2.60;;;2.13;;
19854;SDS011;10088;47.946;2.532;2022-08-01T05:24:00;5.17;;;2.10;;
19854;SDS011;10088;47.946;2.532;2022-08-01T05:26:25;2.07;;;1.87;;
19854;SDS011;10088;47.946;2.532;2022-08-01T05:28:50;2.60;;;1.67;;
19854;SDS011;10088;47.946;2.532;2022-08-01T05:31:16;2.13;;;1.83;;
19854;SDS011;10088;47.946;2.532;2022-08-01T05:33:41;1.70;;;1.60;;
19854;SDS011;10088;47.946;2.532;2022-08-01T05:36:06;1.90;;;1.70;;
19854;SDS011;10088;47.946;2.532;2022-08-01T05:38:31;1.70;;;1.60;;
19854;SDS011;10088;47.946;2.532;2022-08-01T05:40:57;4.30;;;1.90;;
19854;SDS011;10088;47.946;2.532;2022-08-01T05:43:22;1.90;;;1.80;;
19854;SDS011;10088;47.946;2.532;2022-08-01T05:45:48;2.83;;;1.73;;
19854;SDS011;10088;47.946;2.532;2022-08-01T05:48:13;3.93;;;1.77;;
19854;SDS011;10088;47.946;2.532;2022-08-01T05:50:38;1.57;;;1.47;;
19854;SDS011;10088;47.946;2.532;2022-08-01T05:53:04;1.73;;;1.63;;
19854;SDS011;10088;47.946;2.532;2022-08-01T05:55:29;2.20;;;1.60;;
19854;SDS011;10088;47.946;2.532;2022-08-01T05:57:54;3.47;;;1.60;;
19854;SDS011;10088;47.946;2.532;2022-08-01T06:00:19;1.60;;;1.50;;
19854;SDS011;10088;47.946;2.532;2022-08-01T06:02:45;1.77;;;1.67;;
19854;SDS011;10088;47.946;2.532;2022-08-01T06:05:10;2.73;;;1.60;;
19854;SDS011;10088;47.946;2.532;2022-08-01T06:07:35;2.60;;;1.70;;
19854;SDS011;10088;47.946;2.532;2022-08-01T06:10:01;5.73;;;1.73;;
19854;SDS011;10088;47.946;2.532;2022-08-01T06:12:26;3.73;;;1.70;;
19854;SDS011;10088;47.946;2.532;2022-08-01T06:14:52;3.83;;;1.63;;
19854;SDS011;10088;47.946;2.532;2022-08-01T06:17:17;6.80;;;1.67;;
19854;SDS011;10088;47.946;2.532;2022-08-01T06:19:42;1.50;;;1.40;;
19854;SDS011;10088;47.946;2.532;2022-08-01T06:22:07;2.50;;;1.30;;
19854;SDS011;10088;47.946;2.532;2022-08-01T06:24:33;2.03;;;1.33;;
19854;SDS011;10088;47.946;2.532;2022-08-01T06:26:58;5.17;;;1.20;;
19854;SDS011;10088;47.946;2.532;2022-08-01T06:29:23;2.37;;;1.10;;
19854;SDS011;10088;47.946;2.532;2022-08-01T06:31:49;1.67;;;1.10;;
19854;SDS011;10088;47.946;2.532;2022-08-01T06:34:14;1.67;;;0.97;;
19854;SDS011;10088;47.946;2.532;2022-08-01T06:36:40;2.10;;;1.23;;
19854;SDS011;10088;47.946;2.532;2022-08-01T06:39:05;2.50;;;1.00;;
19854;SDS011;10088;47.946;2.532;2022-08-01T06:41:31;2.53;;;0.90;;
19854;SDS011;10088;47.946;2.532;2022-08-01T06:43:56;1.23;;;0.77;;
19854;SDS011;10088;47.946;2.532;2022-08-01T06:46:21;2.67;;;1.00;;
19854;SDS011;10088;47.946;2.532;2022-08-01T06:48:46;1.57;;;1.10;;
19854;SDS011;10088;47.946;2.532;2022-08-01T06:51:12;2.20;;;0.80;;
19854;SDS011;10088;47.946;2.532;2022-08-01T06:53:41;1.60;;;0.80;;
19854;SDS011;10088;47.946;2.532;2022-08-01T06:56:06;1.43;;;0.77;;
19854;SDS011;10088;47.946;2.532;2022-08-01T06:58:33;1.53;;;0.97;;
19854;SDS011;10088;47.946;2.532;2022-08-01T07:00:59;1.37;;;0.80;;
19854;SDS011;10088;47.946;2.532;2022-08-01T07:03:25;3.47;;;1.37;;
19854;SDS011;10088;47.946;2.532;2022-08-01T07:05:51;1.40;;;0.87;;
19854;SDS011;10088;47.946;2.532;2022-08-01T07:08:16;1.40;;;0.80;;
19854;SDS011;10088;47.946;2.532;2022-08-01T07:10:41;3.33;;;0.83;;
19854;SDS011;10088;47.946;2.532;2022-08-01T07:13:08;4.00;;;1.10;;
19854;SDS011;10088;47.946;2.532;2022-08-01T07:15:33;2.47;;;0.90;;
19854;SDS011;10088;47.946;2.532;2022-08-01T07:17:58;1.40;;;0.90;;
19854;SDS011;10088;47.946;2.532;2022-08-01T07:20:26;1.57;;;0.90;;
19854;SDS011;10088;47.946;2.532;2022-08-01T07:22:51;0.80;;;0.60;;
19854;SDS011;10088;47.946;2.532;2022-08-01T07:25:17;2.73;;;1.00;;
19854;SDS011;10088;47.946;2.532;2022-08-01T07:27:42;1.47;;;0.73;;
19854;SDS011;10088;47.946;2.532;2022-08-01T07:30:09;1.80;;;0.90;;
19854;SDS011;10088;47.946;2.532;2022-08-01T07:32:34;2.57;;;0.77;;
19854;SDS011;10088;47.946;2.532;2022-08-01T07:35:01;2.67;;;0.90;;
19854;SDS011;10088;47.946;2.532;2022-08-01T07:37:26;2.47;;;0.73;;
19854;SDS011;10088;47.946;2.532;2022-08-01T07:39:51;1.97;;;0.80;;
19854;SDS011;10088;47.946;2.532;2022-08-01T07:42:16;2.20;;;0.90;;
19854;SDS011;10088;47.946;2.532;2022-08-01T07:44:42;1.23;;;0.70;;
19854;SDS011;10088;47.946;2.532;2022-08-01T07:47:07;4.67;;;0.80;;
19854;SDS011;10088;47.946;2.532;2022-08-01T07:49:33;1.00;;;0.67;;
19854;SDS011;10088;47.946;2.532;2022-08-01T07:51:58;0.90;;;0.60;;
19854;SDS011;10088;47.946;2.532;2022-08-01T07:54:23;3.20;;;0.80;;
19854;SDS011;10088;47.946;2.532;2022-08-01T07:56:49;1.73;;;0.90;;
19854;SDS011;10088;47.946;2.532;2022-08-01T07:59:14;2.60;;;0.85;;
19854;SDS011;10088;47.946;2.532;2022-08-01T08:01:40;1.77;;;0.60;;
19854;SDS011;10088;47.946;2.532;2022-08-01T08:04:06;1.57;;;0.70;;
19854;SDS011;10088;47.946;2.532;2022-08-01T08:06:31;2.17;;;0.80;;
19854;SDS011;10088;47.946;2.532;2022-08-01T08:08:56;1.20;;;0.60;;
19854;SDS011;10088;47.946;2.532;2022-08-01T08:11:22;3.83;;;1.03;;
19854;SDS011;10088;47.946;2.532;2022-08-01T08:13:47;0.87;;;0.70;;
19854;SDS011;10088;47.946;2.532;2022-08-01T08:16:13;0.87;;;0.80;;
19854;SDS011;10088;47.946;2.532;2022-08-01T08:18:38;3.00;;;0.70;;
19854;SDS011;10088;47.946;2.532;2022-08-01T08:21:04;1.63;;;0.90;;
19854;SDS011;10088;47.946;2.532;2022-08-01T08:23:29;3.50;;;1.07;;
19854;SDS011;10088;47.946;2.532;2022-08-01T08:26:13;1.13;;;0.67;;
19854;SDS011;10088;47.946;2.532;2022-08-01T08:28:38;1.70;;;0.80;;
19854;SDS011;10088;47.946;2.532;2022-08-01T08:31:04;1.30;;;1.00;;
19854;SDS011;10088;47.946;2.532;2022-08-01T08:33:29;1.73;;;0.83;;
19854;SDS011;10088;47.946;2.532;2022-08-01T08:35:54;1.50;;;0.90;;
19854;SDS011;10088;47.946;2.532;2022-08-01T08:38:19;2.10;;;0.80;;
19854;SDS011;10088;47.946;2.532;2022-08-01T08:40:45;2.07;;;0.90;;
19854;SDS011;10088;47.946;2.532;2022-08-01T08:43:10;1.57;;;0.80;;
19854;SDS011;10088;47.946;2.532;2022-08-01T08:45:36;1.70;;;0.90;;
19854;SDS011;10088;47.946;2.532;2022-08-01T08:48:02;1.73;;;0.80;;
19854;SDS011;10088;47.946;2.532;2022-08-01T08:50:27;1.17;;;0.80;;
19854;SDS011;10088;47.946;2.532;2022-08-01T08:52:54;2.57;;;0.90;;
19854;SDS011;10088;47.946;2.532;2022-08-01T08:55:19;3.50;;;1.00;;
19854;SDS011;10088;47.946;2.532;2022-08-01T08:57:45;1.43;;;0.77;;
19854;SDS011;10088;47.946;2.532;2022-08-01T09:00:11;2.27;;;0.97;;
19854;SDS011;10088;47.946;2.532;2022-08-01T09:02:40;1.07;;;0.90;;
19854;SDS011;10088;47.946;2.532;2022-08-01T09:05:07;2.20;;;0.93;;
19854;SDS011;10088;47.946;2.532;2022-08-01T09:07:32;1.10;;;0.85;;
19854;SDS011;10088;47.946;2.532;2022-08-01T09:09:57;1.42;;;0.90;;
19854;SDS011;10088;47.946;2.532;2022-08-01T09:12:23;1.05;;;0.70;;
19854;SDS011;10088;47.946;2.532;2022-08-01T09:14:48;1.63;;;0.80;;
19854;SDS011;10088;47.946;2.532;2022-08-01T09:17:15;1.30;;;0.80;;
19854;SDS011;10088;47.946;2.532;2022-08-01T09:19:42;2.63;;;0.82;;
19854;SDS011;10088;47.946;2.532;2022-08-01T09:22:08;1.83;;;0.98;;
19854;SDS011;10088;47.946;2.532;2022-08-01T09:24:34;1.58;;;1.10;;
19854;SDS011;10088;47.946;2.532;2022-08-01T09:26:59;1.30;;;1.00;;
19854;SDS011;10088;47.946;2.532;2022-08-01T09:29:27;1.40;;;0.87;;
19854;SDS011;10088;47.946;2.532;2022-08-01T09:31:52;2.10;;;1.00;;
19854;SDS011;10088;47.946;2.532;2022-08-01T09:34:25;2.13;;;1.20;;
19854;SDS011;10088;47.946;2.532;2022-08-01T09:36:51;1.40;;;0.80;;
19854;SDS011;10088;47.946;2.532;2022-08-01T09:39:17;3.73;;;1.10;;
19854;SDS011;10088;47.946;2.532;2022-08-01T09:41:42;1.83;;;1.13;;
19854;SDS011;10088;47.946;2.532;2022-08-01T09:44:08;2.17;;;0.90;;
19854;SDS011;10088;47.946;2.532;2022-08-01T09:46:33;1.60;;;0.90;;
19854;SDS011;10088;47.946;2.532;2022-08-01T09:49:02;1.43;;;0.93;;
19854;SDS011;10088;47.946;2.532;2022-08-01T09:51:29;1.60;;;0.90;;
19854;SDS011;10088;47.946;2.532;2022-08-01T09:53:54;2.40;;;1.20;;
19854;SDS011;10088;47.946;2.532;2022-08-01T09:56:20;1.13;;;0.80;;
19854;SDS011;10088;47.946;2.532;2022-08-01T09:58:50;1.10;;;1.00;;
19854;SDS011;10088;47.946;2.532;2022-08-01T10:01:16;1.60;;;1.10;;
19854;SDS011;10088;47.946;2.532;2022-08-01T10:03:41;3.30;;;0.90;;
19854;SDS011;10088;47.946;2.532;2022-08-01T10:06:19;3.00;;;1.07;;
19854;SDS011;10088;47.946;2.532;2022-08-01T10:08:45;3.40;;;1.10;;
19854;SDS011;10088;47.946;2.532;2022-08-01T10:11:11;2.33;;;1.00;;
19854;SDS011;10088;47.946;2.532;2022-08-01T10:13:37;2.17;;;1.03;;
19854;SDS011;10088;47.946;2.532;2022-08-01T10:16:02;2.37;;;1.00;;
19854;SDS011;10088;47.946;2.532;2022-08-01T10:18:29;1.53;;;1.17;;
19854;SDS011;10088;47.946;2.532;2022-08-01T10:20:56;1.37;;;0.90;;
19854;SDS011;10088;47.946;2.532;2022-08-01T10:23:22;2.20;;;1.10;;
19854;SDS011;10088;47.946;2.532;2022-08-01T10:25:48;1.60;;;0.80;;
19854;SDS011;10088;47.946;2.532;2022-08-01T10:28:14;1.37;;;1.00;;
19854;SDS011;10088;47.946;2.532;2022-08-01T10:30:41;1.03;;;0.90;;
19854;SDS011;10088;47.946;2.532;2022-08-01T10:33:07;3.43;;;0.90;;
19854;SDS011;10088;47.946;2.532;2022-08-01T10:35:32;2.93;;;0.70;;
19854;SDS011;10088;47.946;2.532;2022-08-01T10:37:58;1.60;;;0.70;;
19854;SDS011;10088;47.946;2.532;2022-08-01T10:40:23;1.40;;;0.90;;
19854;SDS011;10088;47.946;2.532;2022-08-01T10:42:48;2.43;;;1.07;;
19854;SDS011;10088;47.946;2.532;2022-08-01T10:45:15;1.57;;;0.80;;
19854;SDS011;10088;47.946;2.532;2022-08-01T10:50:27;1.37;;;0.97;;
19854;SDS011;10088;47.946;2.532;2022-08-01T10:56:01;3.07;;;0.90;;
19854;SDS011;10088;47.946;2.532;2022-08-01T11:01:36;2.30;;;1.00;;
19854;SDS011;10088;47.946;2.532;2022-08-01T11:06:22;1.50;;;0.80;;
19854;SDS011;10088;47.946;2.532;2022-08-01T11:08:52;2.00;;;0.90;;
19854;SDS011;10088;47.946;2.532;2022-08-01T11:11:18;1.53;;;0.80;;
19854;SDS011;10088;47.946;2.532;2022-08-01T11:16:38;1.90;;;1.00;;
19854;SDS011;10088;47.946;2.532;2022-08-01T11:19:04;2.70;;;0.90;;
19854;SDS011;10088;47.946;2.532;2022-08-01T11:27:28;0.90;;;0.80;;
19854;SDS011;10088;47.946;2.532;2022-08-01T11:30:35;3.60;;;0.90;;
19854;SDS011;10088;47.946;2.532;2022-08-01T11:35:13;2.53;;;0.90;;
19854;SDS011;10088;47.946;2.532;2022-08-01T11:37:39;1.63;;;0.97;;
19854;SDS011;10088;47.946;2.532;2022-08-01T11:40:14;2.73;;;0.90;;
19854;SDS011;10088;47.946;2.532;2022-08-01T11:42:39;2.20;;;1.00;;
19854;SDS011;10088;47.946;2.532;2022-08-01T11:45:04;2.83;;;1.00;;
19854;SDS011;10088;47.946;2.532;2022-08-01T11:47:42;0.80;;;0.70;;
19854;SDS011;10088;47.946;2.532;2022-08-01T11:50:16;2.37;;;1.10;;
19854;SDS011;10088;47.946;2.532;2022-08-01T11:52:56;1.30;;;1.00;;
19854;SDS011;10088;47.946;2.532;2022-08-01T11:55:22;1.37;;;0.70;;
19854;SDS011;10088;47.946;2.532;2022-08-01T11:57:48;2.47;;;0.97;;
19854;SDS011;10088;47.946;2.532;2022-08-01T12:00:18;1.10;;;0.70;;
19854;SDS011;10088;47.946;2.532;2022-08-01T12:02:44;2.23;;;0.93;;
19854;SDS011;10088;47.946;2.532;2022-08-01T12:05:10;1.53;;;0.80;;
19854;SDS011;10088;47.946;2.532;2022-08-01T12:07:37;2.00;;;0.90;;
19854;SDS011;10088;47.946;2.532;2022-08-01T12:10:06;1.13;;;0.70;;
19854;SDS011;10088;47.946;2.532;2022-08-01T12:12:33;2.47;;;0.87;;
19854;SDS011;10088;47.946;2.532;2022-08-01T12:15:00;2.07;;;0.70;;
19854;SDS011;10088;47.946;2.532;2022-08-01T12:17:33;2.13;;;0.80;;
19854;SDS011;10088;47.946;2.532;2022-08-01T12:19:59;1.27;;;0.80;;
19854;SDS011;10088;47.946;2.532;2022-08-01T12:22:24;3.30;;;0.90;;
19854;SDS011;10088;47.946;2.532;2022-08-01T12:24:50;3.80;;;1.00;;
19854;SDS011;10088;47.946;2.532;2022-08-01T12:27:25;1.37;;;0.77;;
19854;SDS011;10088;47.946;2.532;2022-08-01T12:29:51;2.17;;;0.90;;
19854;SDS011;10088;47.946;2.532;2022-08-01T12:32:27;1.17;;;0.90;;
19854;SDS011;10088;47.946;2.532;2022-08-01T12:34:53;1.37;;;0.80;;
19854;SDS011;10088;47.946;2.532;2022-08-01T12:37:18;1.87;;;0.77;;
19854;SDS011;10088;47.946;2.532;2022-08-01T12:39:44;2.10;;;0.80;;
19854;SDS011;10088;47.946;2.532;2022-08-01T12:42:10;1.50;;;0.70;;
19854;SDS011;10088;47.946;2.532;2022-08-01T12:44:36;1.73;;;0.70;;
19854;SDS011;10088;47.946;2.532;2022-08-01T12:47:02;2.03;;;0.80;;
19854;SDS011;10088;47.946;2.532;2022-08-01T12:49:29;1.83;;;0.83;;
19854;SDS011;10088;47.946;2.532;2022-08-01T12:51:54;1.37;;;0.80;;
19854;SDS011;10088;47.946;2.532;2022-08-01T12:54:20;1.20;;;0.80;;
19854;SDS011;10088;47.946;2.532;2022-08-01T12:56:45;1.77;;;0.87;;
19854;SDS011;10088;47.946;2.532;2022-08-01T12:59:23;0.90;;;0.70;;
19854;SDS011;10088;47.946;2.532;2022-08-01T13:01:53;0.90;;;0.63;;
19854;SDS011;10088;47.946;2.532;2022-08-01T13:04:19;2.20;;;1.00;;
19854;SDS011;10088;47.946;2.532;2022-08-01T13:06:45;1.40;;;0.80;;
19854;SDS011;10088;47.946;2.532;2022-08-01T13:09:10;1.87;;;0.87;;
19854;SDS011;10088;47.946;2.532;2022-08-01T13:11:37;1.10;;;0.70;;
19854;SDS011;10088;47.946;2.532;2022-08-01T13:14:02;1.10;;;0.70;;
19854;SDS011;10088;47.946;2.532;2022-08-01T13:16:28;1.97;;;0.80;;
19854;SDS011;10088;47.946;2.532;2022-08-01T13:18:55;1.50;;;0.70;;
19854;SDS011;10088;47.946;2.532;2022-08-01T13:21:25;0.70;;;0.60;;
19854;SDS011;10088;47.946;2.532;2022-08-01T13:29:06;1.33;;;0.90;;
19854;SDS011;10088;47.946;2.532;2022-08-01T13:31:33;2.17;;;0.80;;
19854;SDS011;10088;47.946;2.532;2022-08-01T13:33:58;1.57;;;0.60;;
19854;SDS011;10088;47.946;2.532;2022-08-01T13:36:24;1.27;;;1.00;;
19854;SDS011;10088;47.946;2.532;2022-08-01T13:38:52;2.00;;;0.80;;
19854;SDS011;10088;47.946;2.532;2022-08-01T13:41:35;2.93;;;0.80;;
19854;SDS011;10088;47.946;2.532;2022-08-01T13:44:01;1.20;;;0.70;;
19854;SDS011;10088;47.946;2.532;2022-08-01T13:46:26;2.93;;;0.90;;
19854;SDS011;10088;47.946;2.532;2022-08-01T13:48:51;1.50;;;0.80;;
19854;SDS011;10088;47.946;2.532;2022-08-01T13:51:17;1.30;;;0.83;;
19854;SDS011;10088;47.946;2.532;2022-08-01T13:53:42;1.37;;;0.83;;
19854;SDS011;10088;47.946;2.532;2022-08-01T13:56:07;4.17;;;0.90;;
19854;SDS011;10088;47.946;2.532;2022-08-01T13:58:32;2.03;;;0.90;;
19854;SDS011;10088;47.946;2.532;2022-08-01T14:00:58;2.40;;;0.80;;
19854;SDS011;10088;47.946;2.532;2022-08-01T14:03:23;5.53;;;0.70;;
19854;SDS011;10088;47.946;2.532;2022-08-01T14:05:49;1.90;;;0.87;;
19854;SDS011;10088;47.946;2.532;2022-08-01T14:08:14;3.17;;;0.70;;
19854;SDS011;10088;47.946;2.532;2022-08-01T14:10:40;1.00;;;0.67;;
19854;SDS011;10088;47.946;2.532;2022-08-01T14:13:05;2.10;;;0.70;;
19854;SDS011;10088;47.946;2.532;2022-08-01T14:15:30;1.13;;;0.80;;
19854;SDS011;10088;47.946;2.532;2022-08-01T14:17:56;3.00;;;0.70;;
19854;SDS011;10088;47.946;2.532;2022-08-01T14:20:21;0.60;;;0.50;;
19854;SDS011;10088;47.946;2.532;2022-08-01T14:22:46;2.53;;;0.70;;
19854;SDS011;10088;47.946;2.532;2022-08-01T14:25:12;1.25;;;0.70;;
19854;SDS011;10088;47.946;2.532;2022-08-01T14:27:37;1.70;;;0.77;;
19854;SDS011;10088;47.946;2.532;2022-08-01T14:30:05;2.30;;;0.68;;
19854;SDS011;10088;47.946;2.532;2022-08-01T14:32:31;1.90;;;0.70;;
19854;SDS011;10088;47.946;2.532;2022-08-01T14:34:58;7.95;;;1.20;;
19854;SDS011;10088;47.946;2.532;2022-08-01T14:37:23;3.45;;;0.90;;
19854;SDS011;10088;47.946;2.532;2022-08-01T14:39:49;1.83;;;0.77;;
19854;SDS011;10088;47.946;2.532;2022-08-01T14:42:14;2.25;;;0.80;;
19854;SDS011;10088;47.946;2.532;2022-08-01T14:44:39;2.42;;;1.00;;
19854;SDS011;10088;47.946;2.532;2022-08-01T14:47:04;0.93;;;0.70;;
19854;SDS011;10088;47.946;2.532;2022-08-01T14:49:30;2.00;;;0.90;;
19854;SDS011;10088;47.946;2.532;2022-08-01T14:51:55;1.05;;;0.70;;
19854;SDS011;10088;47.946;2.532;2022-08-01T14:54:20;4.72;;;0.77;;
19854;SDS011;10088;47.946;2.532;2022-08-01T14:56:45;2.45;;;0.82;;
19854;SDS011;10088;47.946;2.532;2022-08-01T14:59:11;2.30;;;0.57;;
19854;SDS011;10088;47.946;2.532;2022-08-01T15:01:36;2.65;;;0.70;;
19854;SDS011;10088;47.946;2.532;2022-08-01T15:04:01;4.13;;;0.70;;
19854;SDS011;10088;47.946;2.532;2022-08-01T15:06:27;2.45;;;0.90;;
19854;SDS011;10088;47.946;2.532;2022-08-01T15:08:52;2.72;;;0.73;;
19854;SDS011;10088;47.946;2.532;2022-08-01T15:11:17;4.38;;;0.63;;
19854;SDS011;10088;47.946;2.532;2022-08-01T15:13:42;2.75;;;0.73;;
19854;SDS011;10088;47.946;2.532;2022-08-01T15:16:08;2.35;;;0.70;;
19854;SDS011;10088;47.946;2.532;2022-08-01T15:18:33;1.38;;;0.70;;
19854;SDS011;10088;47.946;2.532;2022-08-01T15:20:58;1.85;;;0.70;;